YQU weather

Grande Prairie Airport
Grande Prairie, Alberta, Canada

Public forecast

Using degrees Celsius for public forecast. Weather courtesy of forecast.io.

METAR (pilot weather report)

Retrieved 2019/06/27 04:00 UTC (1 hour ago):

CYQU 270400Z 01003KT 25SM FEW040CB SCT100 BKN200 14/12 A3002 RMK CB2AC1CI2 CB DIST SE SLP176 DENSITY ALT 2500FT

TAF (pilot weather forecast)

Retrieved 2019/06/27 01:42 UTC (4 hours ago):

TAF CYQU 270038Z 2701/2713 10006KT P6SM SCT040 BKN100 TEMPO 2701/2704 5SM -SHRA BR VCTS BKN030CB OVC040 FM270400 07006KT P6SM SCT040 TEMPO 2704/2706 P6SM -SHRA BKN040 FM271000 VRB03KT P6SM FEW003 RMK NXT FCST BY 270700Z